Terminal Aerodrome Forecast
Issued by NWS

Home | Current Version | Previous Version | Text Only | Print | Product List | Glossary On
Versions: 1 2 3 4 5 6 7 8 9 10 11 12 13 14 15 16
000
FTUS46 KPDT 280529
TAFPSC
TAF
KPSC 280529Z 2806/0106 23014G23KT P6SM VCSH SCT060 BKN100
     FM280900 23011KT P6SM SCT070 BKN110
     FM282000 23015G26KT P6SM SCT060 BKN100=

USA.gov is the U.S. government's official web portal to all federal, state and local government web resources and services.